createdAt,value
2023-04-16T00:01:51.694Z,17.42
2023-04-16T00:04:18.892Z,15.43
2023-04-16T00:06:45.926Z,21.33
2023-04-16T00:09:12.827Z,18.25
2023-04-16T00:11:39.551Z,23.55
2023-04-16T00:14:06.445Z,18.35
2023-04-16T00:16:33.294Z,16.83
2023-04-16T00:19:00.027Z,17.48
2023-04-16T00:21:26.845Z,15.57
2023-04-16T00:23:53.612Z,18.10
2023-04-16T00:26:20.614Z,18.80
2023-04-16T00:28:48.565Z,13.13
2023-04-16T00:31:15.506Z,20.52
2023-04-16T00:33:42.698Z,18.25
2023-04-16T00:36:09.738Z,18.50
2023-04-16T00:38:37.160Z,8.95
2023-04-16T00:41:04.019Z,16.13
2023-04-16T00:43:31.737Z,17.63
2023-04-16T00:45:59.023Z,19.70
2023-04-16T00:48:28.246Z,12.25
2023-04-16T00:50:55.943Z,21.73
2023-04-16T00:53:23.208Z,17.88
2023-04-16T00:55:50.581Z,12.30
2023-04-16T00:58:17.548Z,16.30
2023-04-16T01:00:44.326Z,8.27
2023-04-16T01:03:11.480Z,11.25
2023-04-16T01:05:38.692Z,10.05
2023-04-16T01:08:05.671Z,16.15
2023-04-16T01:10:32.523Z,13.60
2023-04-16T01:12:59.335Z,9.93
2023-04-16T01:15:26.176Z,11.10
2023-04-16T01:17:53.075Z,15.20
2023-04-16T01:20:19.955Z,10.13
2023-04-16T01:22:49.141Z,14.50
2023-04-16T01:25:16.364Z,14.93
2023-04-16T01:27:43.256Z,15.18
2023-04-16T01:30:10.370Z,12.45
2023-04-16T01:32:50.340Z,16.88
2023-04-16T01:35:18.376Z,16.58
2023-04-16T01:37:45.335Z,16.17
2023-04-16T01:40:14.624Z,17.95
2023-04-16T01:42:41.500Z,19.70
2023-04-16T01:45:08.621Z,17.27
2023-04-16T01:47:35.983Z,20.00
2023-04-16T01:50:05.074Z,17.35
2023-04-16T01:52:32.039Z,15.55
2023-04-16T01:54:58.844Z,14.63
2023-04-16T01:57:25.720Z,16.83
2023-04-16T01:59:53.194Z,18.45
2023-04-16T02:02:24.067Z,21.17
2023-04-16T02:04:51.205Z,14.60
2023-04-16T02:07:18.113Z,26.25
2023-04-16T02:09:45.070Z,15.27
2023-04-16T02:12:11.996Z,14.40
2023-04-16T02:14:38.897Z,14.95
2023-04-16T02:17:06.166Z,22.27
2023-04-16T02:19:42.828Z,16.88
2023-04-16T02:22:10.538Z,12.98
2023-04-16T02:24:37.381Z,18.23
2023-04-16T02:27:08.320Z,17.48
2023-04-16T02:29:35.790Z,15.32
2023-04-16T02:32:11.977Z,12.77
2023-04-16T02:34:42.662Z,15.30
2023-04-16T02:37:09.857Z,14.73
2023-04-16T02:39:37.101Z,16.80
2023-04-16T02:42:03.930Z,20.20
2023-04-16T02:44:30.820Z,15.52
2023-04-16T02:46:57.508Z,25.23
2023-04-16T02:49:24.274Z,21.40
2023-04-16T02:51:51.138Z,22.75
2023-04-16T02:54:17.922Z,18.92
2023-04-16T02:56:44.671Z,18.48
2023-04-16T02:59:11.489Z,25.42
2023-04-16T03:01:38.594Z,20.75
2023-04-16T03:04:05.715Z,26.80
2023-04-16T03:06:32.834Z,22.80
2023-04-16T03:08:59.662Z,20.25
2023-04-16T03:11:26.654Z,22.85
2023-04-16T03:13:53.969Z,24.88
2023-04-16T03:16:20.892Z,25.95
2023-04-16T03:18:47.751Z,25.88
2023-04-16T03:21:17.401Z,20.23
2023-04-16T03:23:44.612Z,16.52
2023-04-16T03:26:11.371Z,21.65
2023-04-16T03:28:38.352Z,32.97
2023-04-16T03:31:05.218Z,22.15
2023-04-16T03:33:31.998Z,23.08
2023-04-16T03:35:58.975Z,19.33
2023-04-16T03:38:28.963Z,20.27
2023-04-16T03:40:57.525Z,16.45
2023-04-16T03:43:24.549Z,22.52
2023-04-16T03:45:51.473Z,18.42
2023-04-16T03:48:21.592Z,27.40
2023-04-16T03:50:48.583Z,23.30
2023-04-16T03:53:17.483Z,23.70
2023-04-16T03:55:45.498Z,25.23
2023-04-16T03:58:12.280Z,26.10
2023-04-16T04:00:41.345Z,13.27
2023-04-16T04:03:19.320Z,15.13
2023-04-16T04:05:48.949Z,19.98
2023-04-16T04:08:21.575Z,14.50
2023-04-16T04:10:48.498Z,17.38
2023-04-16T04:13:15.871Z,19.00
2023-04-16T04:15:44.010Z,24.55
2023-04-16T04:18:10.723Z,22.33
2023-04-16T04:20:41.323Z,26.35
2023-04-16T04:23:08.715Z,24.13
2023-04-16T04:25:36.112Z,18.90
2023-04-16T04:28:02.908Z,29.25
2023-04-16T04:30:29.560Z,21.83
2023-04-16T04:32:56.383Z,17.23
2023-04-16T04:35:23.180Z,17.65
2023-04-16T04:37:50.835Z,24.63
2023-04-16T04:40:19.941Z,16.77
2023-04-16T04:42:46.952Z,24.20
2023-04-16T04:45:13.889Z,18.90
2023-04-16T04:47:41.543Z,23.60
2023-04-16T04:50:08.660Z,22.25
2023-04-16T04:52:35.974Z,25.05
2023-04-16T04:55:03.692Z,23.25
2023-04-16T04:57:33.461Z,27.40
2023-04-16T05:00:04.024Z,26.58
2023-04-16T05:02:39.253Z,32.25
2023-04-16T05:05:06.324Z,25.25
2023-04-16T05:07:33.171Z,34.03
2023-04-16T05:10:00.658Z,41.03
2023-04-16T05:12:27.504Z,37.20
2023-04-16T05:14:54.217Z,23.67
2023-04-16T05:17:21.391Z,29.83
2023-04-16T05:19:49.060Z,29.55
2023-04-16T05:22:18.892Z,24.00
2023-04-16T05:24:45.907Z,33.78
2023-04-16T05:27:12.717Z,37.75
2023-04-16T05:29:39.545Z,35.30
2023-04-16T05:32:06.199Z,26.80
2023-04-16T05:34:33.003Z,28.88
2023-04-16T05:36:59.774Z,26.00
2023-04-16T05:39:27.067Z,29.70
2023-04-16T05:41:53.890Z,25.35
2023-04-16T05:44:20.596Z,26.27
2023-04-16T05:46:47.427Z,29.52
2023-04-16T05:49:14.245Z,27.92
2023-04-16T05:51:41.046Z,29.83
2023-04-16T05:54:07.759Z,32.47
2023-04-16T05:56:34.568Z,29.95
2023-04-16T05:59:01.314Z,32.05
2023-04-16T06:01:28.051Z,34.92
2023-04-16T06:03:55.016Z,29.67
2023-04-16T06:06:21.822Z,30.30
2023-04-16T06:08:48.709Z,25.17
2023-04-16T06:11:15.780Z,27.58
2023-04-16T06:13:42.778Z,27.05
2023-04-16T06:16:09.639Z,29.40
2023-04-16T06:18:36.651Z,27.35
2023-04-16T06:21:04.590Z,25.92
2023-04-16T06:23:31.379Z,26.05
2023-04-16T06:25:58.688Z,26.73
2023-04-16T06:28:25.604Z,27.80
2023-04-16T06:30:52.308Z,27.92
2023-04-16T06:33:19.173Z,31.70
2023-04-16T06:35:46.098Z,30.60
2023-04-16T06:38:12.874Z,28.15
2023-04-16T06:40:40.735Z,26.23
2023-04-16T06:43:07.583Z,26.13
2023-04-16T06:45:34.818Z,36.95
2023-04-16T06:48:03.353Z,34.95
2023-04-16T06:50:30.496Z,26.25
2023-04-16T06:52:57.405Z,32.53
2023-04-16T06:55:24.176Z,29.08
2023-04-16T06:57:50.866Z,31.92
2023-04-16T07:00:18.019Z,31.10
2023-04-16T07:02:45.001Z,30.25
2023-04-16T07:05:11.877Z,27.77
2023-04-16T07:07:38.870Z,33.78
2023-04-16T07:10:06.277Z,35.97
2023-04-16T07:12:33.431Z,27.20
2023-04-16T07:15:00.566Z,33.00
2023-04-16T07:17:27.488Z,31.73
2023-04-16T07:19:54.492Z,25.75
2023-04-16T07:22:21.316Z,36.15
2023-04-16T07:24:48.163Z,32.92
2023-04-16T07:27:14.995Z,25.15
2023-04-16T07:29:41.904Z,37.33
2023-04-16T07:32:08.768Z,24.60
2023-04-16T07:34:35.866Z,26.40
2023-04-16T07:37:02.670Z,41.65
2023-04-16T07:39:29.426Z,32.83
2023-04-16T07:41:56.363Z,31.20
2023-04-16T07:44:23.414Z,31.77
2023-04-16T07:46:50.322Z,28.30
2023-04-16T07:49:17.155Z,25.77
2023-04-16T07:51:44.069Z,34.53
2023-04-16T07:54:11.104Z,35.45
2023-04-16T07:56:38.066Z,29.65
2023-04-16T07:59:18.375Z,35.55
2023-04-16T08:01:49.481Z,28.67
2023-04-16T08:04:20.353Z,34.53
2023-04-16T08:06:47.366Z,29.73
2023-04-16T08:09:14.173Z,29.30
2023-04-16T08:11:40.934Z,35.28
2023-04-16T08:14:07.670Z,29.23
2023-04-16T08:16:34.520Z,27.98
2023-04-16T08:19:01.621Z,32.40
2023-04-16T08:21:29.279Z,35.40
2023-04-16T08:23:56.077Z,33.25
2023-04-16T08:26:22.731Z,27.60
2023-04-16T08:28:49.491Z,32.45
2023-04-16T08:31:16.364Z,36.05
2023-04-16T08:33:43.365Z,31.95
2023-04-16T08:36:10.212Z,27.27
2023-04-16T08:38:37.147Z,29.98
2023-04-16T08:41:06.612Z,35.38
2023-04-16T08:43:34.029Z,30.10
2023-04-16T08:46:00.960Z,33.85
2023-04-16T08:48:30.824Z,33.92
2023-04-16T08:50:57.683Z,36.72
2023-04-16T08:53:28.035Z,30.02
2023-04-16T08:55:58.515Z,35.25
2023-04-16T08:58:26.105Z,31.67
2023-04-16T09:00:53.445Z,32.10
2023-04-16T09:03:21.817Z,31.95
2023-04-16T09:05:49.528Z,30.23
2023-04-16T09:08:17.366Z,33.33
2023-04-16T09:10:47.004Z,26.02
2023-04-16T09:13:16.394Z,31.90
2023-04-16T09:15:43.975Z,33.38
2023-04-16T09:18:12.164Z,27.38
2023-04-16T09:20:41.785Z,22.63
2023-04-16T09:23:09.236Z,28.05
2023-04-16T09:25:37.285Z,28.67
2023-04-16T09:28:04.173Z,29.45
2023-04-16T09:30:31.009Z,21.92
2023-04-16T09:33:23.809Z,29.13
2023-04-16T09:35:51.990Z,22.83
2023-04-16T09:38:19.606Z,33.95
2023-04-16T09:40:47.766Z,29.50
2023-04-16T09:43:15.791Z,37.67
2023-04-16T09:45:50.232Z,28.60
2023-04-16T09:48:27.816Z,28.90
2023-04-16T09:50:54.711Z,27.42
2023-04-16T09:53:26.608Z,29.38
2023-04-16T09:55:56.513Z,29.90
2023-04-16T09:58:24.551Z,27.10
2023-04-16T10:01:05.525Z,35.03
2023-04-16T10:03:33.266Z,28.70
2023-04-16T10:06:14.811Z,32.13
2023-04-16T10:08:48.529Z,27.30
2023-04-16T10:11:17.182Z,29.30
2023-04-16T10:13:44.043Z,37.58
2023-04-16T10:16:11.403Z,28.77
2023-04-16T10:18:39.528Z,34.35
2023-04-16T10:21:06.987Z,31.90
2023-04-16T10:23:33.925Z,35.80
2023-04-16T10:26:01.606Z,33.10
2023-04-16T10:28:29.533Z,34.72
2023-04-16T10:30:57.201Z,22.15
2023-04-16T10:33:37.492Z,25.75
2023-04-16T10:36:11.161Z,23.98
2023-04-16T10:38:38.989Z,25.35
2023-04-16T10:41:07.212Z,25.90
2023-04-16T10:43:38.479Z,26.33
2023-04-16T10:46:24.372Z,25.20
2023-04-16T10:48:52.986Z,25.90
2023-04-16T10:51:35.928Z,32.90
2023-04-16T10:54:04.133Z,28.55
2023-04-16T10:56:34.839Z,22.48
2023-04-16T10:59:04.286Z,25.27
2023-04-16T11:01:32.857Z,27.35
2023-04-16T11:04:02.079Z,25.73
2023-04-16T11:06:29.807Z,30.83
2023-04-16T11:08:56.594Z,22.95
2023-04-16T11:11:23.639Z,29.02
2023-04-16T11:13:54.902Z,33.55
2023-04-16T11:16:21.731Z,29.33
2023-04-16T11:18:51.344Z,31.27
2023-04-16T11:21:22.100Z,27.17
2023-04-16T11:23:52.911Z,30.73
2023-04-16T11:26:20.503Z,32.97
2023-04-16T11:28:47.185Z,24.58
2023-04-16T11:31:14.087Z,28.17
2023-04-16T11:33:42.470Z,21.75
2023-04-16T11:36:09.751Z,25.10
2023-04-16T11:38:37.419Z,23.33
2023-04-16T11:41:04.671Z,24.27
2023-04-16T11:43:32.148Z,34.05
2023-04-16T11:46:10.203Z,33.25
2023-04-16T11:48:50.399Z,29.70
2023-04-16T11:51:17.577Z,30.05
2023-04-16T11:53:52.911Z,30.05
2023-04-16T11:56:26.704Z,27.05
2023-04-16T11:59:12.497Z,25.83
2023-04-16T12:01:40.813Z,21.85
2023-04-16T12:04:08.249Z,29.77
2023-04-16T12:06:35.684Z,26.65
2023-04-16T12:09:22.774Z,27.33
2023-04-16T12:11:49.809Z,26.02
2023-04-16T12:14:16.614Z,28.30
2023-04-16T12:16:43.500Z,29.02
2023-04-16T12:19:13.481Z,33.33
2023-04-16T12:21:40.481Z,28.52
2023-04-16T12:24:08.168Z,27.70
2023-04-16T12:26:42.658Z,33.15
2023-04-16T12:29:17.124Z,27.98
2023-04-16T12:31:44.488Z,23.08
2023-04-16T12:34:11.379Z,26.95
2023-04-16T12:36:38.675Z,28.17
2023-04-16T12:39:05.985Z,29.20
2023-04-16T12:41:33.304Z,32.17
2023-04-16T12:44:09.041Z,33.53
2023-04-16T12:46:37.444Z,29.08
2023-04-16T12:49:04.165Z,32.45
2023-04-16T12:51:31.342Z,23.55
2023-04-16T12:53:58.138Z,29.60
2023-04-16T12:56:24.967Z,30.92
2023-04-16T12:58:53.294Z,31.92
2023-04-16T13:01:20.424Z,31.35
2023-04-16T13:03:47.938Z,26.90
2023-04-16T13:06:15.700Z,27.67
2023-04-16T13:08:43.246Z,26.70
2023-04-16T13:11:10.705Z,33.42
2023-04-16T13:13:37.539Z,30.75
2023-04-16T13:16:06.655Z,26.67
2023-04-16T13:18:33.731Z,33.85
2023-04-16T13:21:00.699Z,30.40
2023-04-16T13:23:27.582Z,31.02
2023-04-16T13:25:54.708Z,31.90
2023-04-16T13:28:21.662Z,27.52
2023-04-16T13:30:48.633Z,28.15
2023-04-16T13:33:15.529Z,23.92
2023-04-16T13:35:42.381Z,30.20
2023-04-16T13:38:09.252Z,30.02
2023-04-16T13:40:36.187Z,24.77
2023-04-16T13:43:03.545Z,22.85
2023-04-16T13:45:30.919Z,25.58
2023-04-16T13:47:57.737Z,29.80
2023-04-16T13:50:24.698Z,27.02
2023-04-16T13:52:51.664Z,25.40
2023-04-16T13:55:19.238Z,24.02
2023-04-16T13:57:47.255Z,25.00
2023-04-16T14:00:15.288Z,25.65
2023-04-16T14:02:42.834Z,25.30
2023-04-16T14:05:09.816Z,27.80
2023-04-16T14:07:37.200Z,29.17
2023-04-16T14:10:04.137Z,22.98
2023-04-16T14:12:31.854Z,24.55
2023-04-16T14:14:58.798Z,23.75
2023-04-16T14:17:25.809Z,24.52
2023-04-16T14:19:52.752Z,23.52
2023-04-16T14:22:20.485Z,28.75
2023-04-16T14:24:47.195Z,27.02
2023-04-16T14:27:14.129Z,27.27
2023-04-16T14:29:41.503Z,26.20
2023-04-16T14:32:08.670Z,25.60
2023-04-16T14:34:37.151Z,27.83
2023-04-16T14:37:04.274Z,23.48
2023-04-16T14:39:31.375Z,23.55
2023-04-16T14:41:58.271Z,29.98
2023-04-16T14:44:25.241Z,23.08
2023-04-16T14:46:52.262Z,27.58
2023-04-16T14:49:19.400Z,31.33
2023-04-16T14:51:46.733Z,23.08
2023-04-16T14:54:13.815Z,30.40
2023-04-16T14:56:40.808Z,24.40
2023-04-16T14:59:08.093Z,28.73
2023-04-16T15:01:36.148Z,28.33
2023-04-16T15:04:03.654Z,27.33
2023-04-16T15:06:32.410Z,26.73
2023-04-16T15:08:59.226Z,24.48
2023-04-16T15:11:26.790Z,29.67
2023-04-16T15:13:55.983Z,24.15
2023-04-16T15:16:23.508Z,32.08
2023-04-16T15:18:50.644Z,30.08
2023-04-16T15:21:17.466Z,36.20
2023-04-16T15:23:46.018Z,26.70
2023-04-16T15:26:12.820Z,31.75
2023-04-16T15:28:39.673Z,33.17
2023-04-16T15:31:07.201Z,33.30
2023-04-16T15:33:34.245Z,33.58
2023-04-16T15:36:01.078Z,30.00
2023-04-16T15:38:30.678Z,27.15
2023-04-16T15:41:00.758Z,35.72
2023-04-16T15:43:28.959Z,34.20
2023-04-16T15:45:56.493Z,33.28
2023-04-16T15:48:23.720Z,33.30
2023-04-16T15:50:50.828Z,35.83
2023-04-16T15:53:17.566Z,36.22
2023-04-16T15:55:44.621Z,29.17
2023-04-16T15:58:11.381Z,31.08
2023-04-16T16:00:38.104Z,31.10
2023-04-16T16:03:05.138Z,31.48
2023-04-16T16:05:32.291Z,28.58
2023-04-16T16:07:59.019Z,34.97
2023-04-16T16:10:26.137Z,32.75
2023-04-16T16:12:53.066Z,32.00
2023-04-16T16:15:19.998Z,28.75
2023-04-16T16:17:46.821Z,30.77
2023-04-16T16:20:14.617Z,36.95
2023-04-16T16:22:43.034Z,39.35
2023-04-16T16:25:10.486Z,37.85
2023-04-16T16:27:37.292Z,46.20
2023-04-16T16:30:06.529Z,40.65
2023-04-16T16:32:33.680Z,38.03
2023-04-16T16:35:00.378Z,40.38
2023-04-16T16:37:28.319Z,40.72
2023-04-16T16:39:55.100Z,37.08
2023-04-16T16:42:21.888Z,36.03
2023-04-16T16:44:48.951Z,39.10
2023-04-16T16:47:15.965Z,46.83
2023-04-16T16:49:43.693Z,38.25
2023-04-16T16:52:10.986Z,41.08
2023-04-16T16:54:37.804Z,41.05
2023-04-16T16:57:04.600Z,38.72
2023-04-16T16:59:31.440Z,38.08
2023-04-16T17:01:58.316Z,35.92
2023-04-16T17:04:25.686Z,33.72
2023-04-16T17:06:52.690Z,34.92
2023-04-16T17:09:19.441Z,43.03
2023-04-16T17:11:46.360Z,36.58
2023-04-16T17:14:13.167Z,33.45
2023-04-16T17:16:40.446Z,31.33
2023-04-16T17:19:07.362Z,31.70
2023-04-16T17:21:34.060Z,36.85
2023-04-16T17:24:01.110Z,43.17
2023-04-16T17:26:27.890Z,36.03
2023-04-16T17:28:56.654Z,32.35
2023-04-16T17:31:27.306Z,36.35
2023-04-16T17:33:54.301Z,38.20
2023-04-16T17:36:22.886Z,43.40
2023-04-16T17:38:50.679Z,43.38
2023-04-16T17:41:17.440Z,38.55
2023-04-16T17:43:46.637Z,34.63
2023-04-16T17:46:13.470Z,40.38
2023-04-16T17:48:40.703Z,43.15
2023-04-16T17:51:15.574Z,36.55
2023-04-16T17:53:43.588Z,42.90
2023-04-16T17:56:10.867Z,47.50
2023-04-16T17:58:37.912Z,39.65
2023-04-16T18:01:05.272Z,44.85
2023-04-16T18:03:32.837Z,45.72
2023-04-16T18:05:59.922Z,45.00
2023-04-16T18:08:26.979Z,44.65
2023-04-16T18:10:55.367Z,53.13
2023-04-16T18:13:22.655Z,39.13
2023-04-16T18:15:49.717Z,47.28
2023-04-16T18:18:16.678Z,37.92
2023-04-16T18:20:43.431Z,44.08
2023-04-16T18:23:10.546Z,44.42
2023-04-16T18:25:37.333Z,45.40
2023-04-16T18:28:05.139Z,44.28
2023-04-16T18:30:34.414Z,44.17
2023-04-16T18:33:30.519Z,43.78
2023-04-16T18:35:48.216Z,51.28
2023-04-16T18:38:14.925Z,39.80
2023-04-16T18:40:42.248Z,38.70
2023-04-16T18:43:09.535Z,39.13
2023-04-16T18:45:37.181Z,46.38
2023-04-16T18:48:04.323Z,56.03
2023-04-16T18:50:32.185Z,42.65
2023-04-16T18:52:59.068Z,38.08
2023-04-16T18:55:26.117Z,47.05
2023-04-16T18:57:53.254Z,48.38
2023-04-16T19:00:20.340Z,41.90
2023-04-16T19:02:47.294Z,45.95
2023-04-16T19:05:14.224Z,45.13
2023-04-16T19:07:41.838Z,42.80
2023-04-16T19:10:08.904Z,42.70
2023-04-16T19:12:36.385Z,39.13
2023-04-16T19:15:03.808Z,39.47
2023-04-16T19:17:30.735Z,35.55
2023-04-16T19:19:58.782Z,39.03
2023-04-16T19:22:25.650Z,43.45
2023-04-16T19:24:52.372Z,43.63
2023-04-16T19:27:19.312Z,49.05
2023-04-16T19:29:46.871Z,43.97
2023-04-16T19:32:14.415Z,55.47
2023-04-16T19:34:41.440Z,54.80
2023-04-16T19:37:08.272Z,50.03
2023-04-16T19:39:35.274Z,58.85
2023-04-16T19:42:02.396Z,54.63
2023-04-16T19:44:29.341Z,56.38
2023-04-16T19:46:56.309Z,50.42
2023-04-16T19:49:25.382Z,58.83
2023-04-16T19:51:52.334Z,54.85
2023-04-16T19:54:19.128Z,57.78
2023-04-16T19:56:46.274Z,55.33
2023-04-16T19:59:13.177Z,61.75
2023-04-16T20:01:40.281Z,59.15
2023-04-16T20:04:07.406Z,65.85
2023-04-16T20:06:34.242Z,58.53
2023-04-16T20:09:01.087Z,51.40
2023-04-16T20:11:28.022Z,54.00
2023-04-16T20:13:54.664Z,61.20
2023-04-16T20:16:24.079Z,56.45
2023-04-16T20:18:54.328Z,58.20
2023-04-16T20:21:21.624Z,65.00
2023-04-16T20:23:48.501Z,59.08
2023-04-16T20:26:16.712Z,57.30
2023-04-16T20:28:43.472Z,60.30
2023-04-16T20:31:11.600Z,56.45
2023-04-16T20:33:41.123Z,54.83
2023-04-16T20:36:08.138Z,61.50
2023-04-16T20:38:35.807Z,58.05
2023-04-16T20:41:12.633Z,58.17
2023-04-16T20:43:41.270Z,57.97
2023-04-16T20:46:08.489Z,54.92
2023-04-16T20:48:35.805Z,56.53
2023-04-16T20:51:03.733Z,49.92
2023-04-16T20:53:33.527Z,45.15
2023-04-16T20:56:01.009Z,56.88
2023-04-16T20:58:27.685Z,50.60
2023-04-16T21:00:55.096Z,46.45
2023-04-16T21:03:22.259Z,45.55
2023-04-16T21:05:55.842Z,50.08
2023-04-16T21:08:23.029Z,45.28
2023-04-16T21:10:50.065Z,55.58
2023-04-16T21:13:16.978Z,55.88
2023-04-16T21:15:44.412Z,50.22
2023-04-16T21:18:11.327Z,56.70
2023-04-16T21:20:38.877Z,49.00
2023-04-16T21:23:06.497Z,55.88
2023-04-16T21:25:33.770Z,48.22
2023-04-16T21:28:00.592Z,55.67
2023-04-16T21:30:27.551Z,51.50
2023-04-16T21:32:54.904Z,46.90
2023-04-16T21:35:21.778Z,51.90
2023-04-16T21:37:48.721Z,51.08
2023-04-16T21:40:15.613Z,49.67
2023-04-16T21:42:42.546Z,60.05
2023-04-16T21:45:10.449Z,51.75
2023-04-16T21:47:37.881Z,56.72
2023-04-16T21:50:04.793Z,60.17
2023-04-16T21:52:32.876Z,51.78
2023-04-16T21:55:00.312Z,49.38
2023-04-16T21:57:27.240Z,48.75
2023-04-16T21:59:54.099Z,54.47
2023-04-16T22:02:21.109Z,53.17
2023-04-16T22:04:48.677Z,58.30
2023-04-16T22:07:16.838Z,48.25
2023-04-16T22:09:43.776Z,53.75
2023-04-16T22:12:10.741Z,60.28
2023-04-16T22:14:42.060Z,50.50
2023-04-16T22:17:13.144Z,52.30
2023-04-16T22:19:39.907Z,56.05
2023-04-16T22:22:06.801Z,63.10
2023-04-16T22:24:33.572Z,51.80
2023-04-16T22:27:00.369Z,59.97
2023-04-16T22:29:27.238Z,49.83
2023-04-16T22:31:55.100Z,47.15
2023-04-16T22:34:22.080Z,51.03
2023-04-16T22:36:48.954Z,50.80
2023-04-16T22:39:16.020Z,48.72
2023-04-16T22:41:42.822Z,53.67
2023-04-16T22:44:09.682Z,54.95
2023-04-16T22:46:37.081Z,47.80
2023-04-16T22:49:03.880Z,58.22
2023-04-16T22:51:30.752Z,49.95
2023-04-16T22:53:57.483Z,55.50
2023-04-16T22:56:28.854Z,49.83
2023-04-16T22:58:55.894Z,55.67
2023-04-16T23:01:23.364Z,51.65
2023-04-16T23:03:50.502Z,50.30
2023-04-16T23:06:17.473Z,54.60
2023-04-16T23:08:44.238Z,57.83
2023-04-16T23:11:11.232Z,48.70
2023-04-16T23:13:38.202Z,51.75
2023-04-16T23:16:05.368Z,54.58
2023-04-16T23:18:32.239Z,51.42
2023-04-16T23:20:59.010Z,55.42
2023-04-16T23:23:26.036Z,58.67
2023-04-16T23:25:53.793Z,58.42
2023-04-16T23:28:21.353Z,50.50
2023-04-16T23:30:51.238Z,49.58
2023-04-16T23:33:17.992Z,47.35
2023-04-16T23:35:46.089Z,55.30
2023-04-16T23:38:12.894Z,55.65
2023-04-16T23:40:39.774Z,61.92
2023-04-16T23:43:06.731Z,47.97
2023-04-16T23:45:33.510Z,52.53
2023-04-16T23:48:00.325Z,64.03
2023-04-16T23:50:27.118Z,58.78
2023-04-16T23:52:54.087Z,54.03
2023-04-16T23:55:20.968Z,56.08
2023-04-16T23:57:47.752Z,59.10
